Time;durP1;ratioP1;P1;durP2;ratioP2;P2;SDS_P1;SDS_P2;PMS_P1;PMS_P2;Temp;Humidity;BMP_temperature;BMP_pressure;BME280_temperature;BME280_humidity;BME280_pressure;Samples;Min_cycle;Max_cycle;Signal;HPM_P1;HPM_P2
2022/12/29 00:01:15;;;;;;;3.25;2.15;;;;;;;9.67;100.00;99800.88;5030077;28;20026;-36
2022/12/29 00:03:41;;;;;;;5.10;2.25;;;;;;;9.68;100.00;99802.53;5030094;28;20381;-36
2022/12/29 00:06:06;;;;;;;2.83;1.80;;;;;;;9.76;100.00;99767.41;5029735;28;20484;-36
2022/12/29 00:08:40;;;;;;;8.13;1.95;;;;;;;9.77;100.00;99758.34;5029956;28;20499;-37
2022/12/29 00:11:17;;;;;;;6.13;1.90;;;;;;;9.83;100.00;99745.94;5030039;28;20029;-37
2022/12/29 00:16:27;;;;;;;3.90;2.00;;;;;;;9.80;100.00;99741.81;5030066;28;20053;-35
2022/12/29 00:18:52;;;;;;;2.38;1.40;;;;;;;9.80;100.00;99736.44;5030920;28;20033;-35
2022/12/29 00:35:09;;;;;;;4.20;1.67;;;;;;;9.99;100.00;99712.47;5033606;28;20507;-38
2022/12/29 00:45:50;;;;;;;4.45;1.60;;;;;;;9.83;100.00;99697.56;5033260;28;20040;-36
2022/12/29 00:49:30;;;;;;;4.03;1.73;;;;;;;9.79;100.00;99696.31;5033348;28;20021;-35
2022/12/29 00:51:01;;;;;;;8.27;2.10;;;;;;;9.76;100.00;99719.03;5033073;28;20041;-35
2022/12/29 00:53:26;;;;;;;2.58;1.45;;;;;;;9.75;100.00;99722.78;5033333;28;20030;-35
2022/12/29 00:55:52;;;;;;;4.25;1.60;;;;;;;9.70;100.00;99770.91;5033507;28;20044;-35
2022/12/29 00:58:17;;;;;;;2.85;1.60;;;;;;;9.70;100.00;99711.81;5033208;28;20017;-37
2022/12/29 01:00:42;;;;;;;6.18;1.83;;;;;;;9.68;100.00;99712.00;5032939;28;20116;-35
2022/12/29 01:03:08;;;;;;;3.90;1.70;;;;;;;9.67;100.00;99709.53;5033264;28;20221;-35
2022/12/29 01:05:36;;;;;;;3.45;1.80;;;;;;;9.65;100.00;99711.59;5033011;28;20435;-36
2022/12/29 01:08:01;;;;;;;3.20;1.33;;;;;;;9.63;100.00;99721.72;5032996;28;20033;-35
2022/12/29 01:10:27;;;;;;;3.95;1.85;;;;;;;9.61;100.00;99719.25;5033275;28;20025;-38
2022/12/29 01:12:52;;;;;;;6.15;1.67;;;;;;;9.59;100.00;99744.66;5033388;28;20033;-37
2022/12/29 01:15:17;;;;;;;5.93;1.92;;;;;;;9.58;100.00;99729.53;5033281;28;20105;-36
2022/12/29 01:17:43;;;;;;;2.95;1.42;;;;;;;9.60;100.00;99730.19;5032815;28;20041;-36
2022/12/29 01:20:08;;;;;;;2.22;1.60;;;;;;;9.60;100.00;99727.50;5032807;28;20026;-36
2022/12/29 01:22:34;;;;;;;3.55;1.40;;;;;;;9.59;100.00;99739.28;5032606;28;20021;-37
2022/12/29 01:24:59;;;;;;;3.95;1.50;;;;;;;9.61;100.00;99738.03;5032729;28;20025;-36
2022/12/29 01:27:25;;;;;;;6.45;1.40;;;;;;;9.58;100.00;99754.53;5032754;28;20088;-37
2022/12/29 01:29:50;;;;;;;5.28;1.73;;;;;;;9.55;100.00;99733.47;5032291;28;20070;-36
2022/12/29 01:32:15;;;;;;;6.03;1.50;;;;;;;9.53;100.00;99735.53;5031763;28;20112;-34
2022/12/29 01:34:40;;;;;;;7.57;1.60;;;;;;;9.51;100.00;99726.03;5032636;28;20025;-37
2022/12/29 01:37:06;;;;;;;8.00;1.70;;;;;;;9.49;100.00;99728.91;5032577;28;20030;-35
2022/12/29 01:39:31;;;;;;;4.05;1.10;;;;;;;9.49;100.00;99728.09;5032544;28;20090;-35
2022/12/29 01:41:56;;;;;;;11.43;1.63;;;;;;;9.49;100.00;99720.84;5032430;28;20026;-37
2022/12/29 01:45:10;;;;;;;2.92;1.02;;;;;;;9.57;100.00;99720.66;5032416;28;20025;-35
2022/12/29 01:47:46;;;;;;;8.55;1.40;;;;;;;9.57;100.00;99717.97;4990118;28;20453;-36
2022/12/29 01:50:11;;;;;;;10.93;2.35;;;;;;;9.60;100.00;99724.81;4990109;28;20026;-37
2022/12/29 01:52:41;;;;;;;5.40;1.17;;;;;;;9.65;100.00;99717.78;5014987;28;20091;-36
2022/12/29 01:55:07;;;;;;;12.20;2.95;;;;;;;9.63;100.00;99730.59;5032205;28;20485;-35
2022/12/29 01:57:35;;;;;;;10.05;1.10;;;;;;;9.66;100.00;99729.34;5031938;28;20025;-36
2022/12/29 02:00:07;;;;;;;10.43;1.20;;;;;;;9.68;100.00;99732.66;5030838;28;20097;-36
2022/12/29 02:02:32;;;;;;;8.25;1.30;;;;;;;9.70;100.00;99722.56;5031969;28;20032;-35
2022/12/29 02:04:59;;;;;;;8.32;1.30;;;;;;;9.67;100.00;99741.78;5032019;28;20044;-35
2022/12/29 02:07:27;;;;;;;9.38;1.27;;;;;;;9.58;100.00;99751.03;5030433;28;20025;-36
2022/12/29 02:09:54;;;;;;;8.27;1.23;;;;;;;9.56;100.00;99715.50;5030896;28;20029;-36
2022/12/29 02:12:20;;;;;;;7.78;1.27;;;;;;;9.53;100.00;99740.06;5031714;28;20025;-35
2022/12/29 02:14:45;;;;;;;6.55;0.90;;;;;;;9.50;100.00;99753.91;5030529;28;20030;-38
2022/12/29 02:17:20;;;;;;;11.88;1.75;;;;;;;9.47;100.00;99727.44;5031643;28;20018;-35
2022/12/29 02:20:23;;;;;;;8.75;1.20;;;;;;;9.42;100.00;99741.47;5031736;28;20420;-34
2022/12/29 02:23:15;;;;;;;10.27;1.05;;;;;;;9.26;100.00;99734.59;5031710;28;20021;-39
2022/12/29 02:26:02;;;;;;;13.80;2.40;;;;;;;9.16;100.00;99734.16;5031699;28;20029;-40
2022/12/29 02:28:43;;;;;;;10.85;1.30;;;;;;;9.06;100.00;99728.31;5031555;28;20418;-41
2022/12/29 02:31:30;;;;;;;10.55;1.20;;;;;;;8.98;100.00;99727.47;5030195;28;20064;-39
2022/12/29 02:34:08;;;;;;;5.78;1.00;;;;;;;8.88;100.00;99737.75;5031467;28;20034;-40
2022/12/29 02:37:01;;;;;;;7.00;1.02;;;;;;;8.71;100.00;99736.38;5029907;28;20029;-40
2022/12/29 02:39:40;;;;;;;8.63;0.90;;;;;;;8.63;100.00;99740.03;5031414;28;20133;-37
2022/12/29 02:42:31;;;;;;;14.15;1.20;;;;;;;8.64;100.00;99727.50;5013459;28;20424;-37
2022/12/29 02:45:22;;;;;;;9.38;1.27;;;;;;;8.65;100.00;99754.09;5031343;28;20075;-39
2022/12/29 02:47:56;;;;;;;12.77;2.05;;;;;;;8.71;100.00;99741.75;5030097;28;20119;-37
2022/12/29 02:50:38;;;;;;;13.50;1.55;;;;;;;8.72;100.00;99740.75;5031110;28;20025;-35
2022/12/29 02:53:13;;;;;;;13.13;1.88;;;;;;;8.75;100.00;99726.94;5029926;28;20104;-36
2022/12/29 02:55:38;;;;;;;14.90;2.08;;;;;;;8.79;100.00;99729.03;5030076;28;20068;-36
2022/12/29 02:58:17;;;;;;;13.38;2.45;;;;;;;8.83;100.00;99728.63;5031060;28;20025;-38
2022/12/29 03:00:53;;;;;;;15.48;1.88;;;;;;;8.88;100.00;99724.31;5030024;28;20034;-37
2022/12/29 03:03:44;;;;;;;12.75;2.17;;;;;;;8.91;100.00;99715.88;5029604;28;20120;-38
2022/12/29 03:06:25;;;;;;;15.25;2.00;;;;;;;8.94;100.00;99722.69;5026856;28;20076;-36
2022/12/29 03:09:16;;;;;;;18.70;2.10;;;;;;;8.95;100.00;99698.38;5029915;28;20021;-35
2022/12/29 03:12:08;;;;;;;23.77;1.95;;;;;;;8.91;100.00;99710.50;5030152;28;20048;-39
2022/12/29 03:17:48;;;;;;;19.83;2.30;;;;;;;8.82;100.00;99700.97;5030606;28;20056;-39
2022/12/29 03:20:18;;;;;;;21.02;2.65;;;;;;;8.81;100.00;99714.59;5030610;28;20041;-37
2022/12/29 03:22:47;;;;;;;18.17;2.22;;;;;;;8.83;100.00;99705.31;5029437;28;20021;-36
2022/12/29 03:25:30;;;;;;;21.60;2.28;;;;;;;8.88;100.00;99707.41;5029205;28;20052;-35
2022/12/29 03:28:01;;;;;;;20.88;2.17;;;;;;;8.94;100.00;99704.72;5030475;28;20468;-35
2022/12/29 03:30:29;;;;;;;20.40;2.33;;;;;;;8.99;100.00;99694.22;5028707;28;20503;-37
2022/12/29 03:32:58;;;;;;;19.35;2.47;;;;;;;8.99;100.00;99702.28;5028904;28;20440;-37
2022/12/29 03:35:26;;;;;;;19.23;2.22;;;;;;;9.04;100.00;99709.75;5028996;28;20341;-37
2022/12/29 03:38:11;;;;;;;22.85;2.35;;;;;;;9.11;100.00;99717.81;5030297;28;20057;-35
2022/12/29 03:40:38;;;;;;;22.80;2.20;;;;;;;9.16;100.00;99705.47;5029154;28;20033;-35
2022/12/29 03:43:04;;;;;;;15.52;2.20;;;;;;;9.19;100.00;99706.94;5028758;28;20064;-36
2022/12/29 03:45:30;;;;;;;12.50;1.90;;;;;;;9.20;100.00;99676.34;5028912;28;20060;-38
2022/12/29 03:47:55;;;;;;;17.90;1.90;;;;;;;9.20;100.00;99692.47;5028941;28;20053;-36
2022/12/29 03:50:20;;;;;;;17.17;3.40;;;;;;;9.22;100.00;99690.41;5030160;28;20385;-36
2022/12/29 03:52:46;;;;;;;8.65;1.50;;;;;;;9.28;100.00;99672.66;5030245;28;20032;-37
2022/12/29 03:55:11;;;;;;;11.25;1.40;;;;;;;9.26;100.00;99680.91;5029505;28;20037;-36
2022/12/29 03:57:37;;;;;;;12.68;1.83;;;;;;;9.25;100.00;99706.13;5030234;28;20044;-36
2022/12/29 04:00:04;;;;;;;15.25;1.90;;;;;;;9.26;100.00;99697.00;5028469;28;20017;-37
2022/12/29 04:02:29;;;;;;;18.93;2.10;;;;;;;9.23;100.00;99676.78;5030219;28;20033;-35
2022/12/29 04:04:55;;;;;;;18.85;2.25;;;;;;;9.19;100.00;99704.25;5029903;28;20809;-38
2022/12/29 04:07:20;;;;;;;15.63;2.22;;;;;;;9.15;100.00;99706.47;5030102;28;20392;-35
2022/12/29 04:09:45;;;;;;;14.23;2.05;;;;;;;9.09;100.00;99693.03;5028514;28;20052;-35
2022/12/29 04:12:10;;;;;;;17.73;2.08;;;;;;;9.05;100.00;99695.28;5030010;28;20026;-35
2022/12/29 04:14:36;;;;;;;20.70;2.78;;;;;;;9.00;100.00;99698.59;5029712;28;20040;-37
2022/12/29 04:17:01;;;;;;;24.88;2.67;;;;;;;8.98;100.00;99689.09;5029909;28;20029;-38
2022/12/29 04:19:26;;;;;;;27.90;2.85;;;;;;;8.91;100.00;99709.69;5029868;28;20022;-35
2022/12/29 04:21:52;;;;;;;31.25;3.00;;;;;;;8.84;100.00;99688.16;5030324;28;20472;-36
2022/12/29 04:24:17;;;;;;;25.73;3.10;;;;;;;8.85;100.00;99700.56;5030140;28;20354;-38
2022/12/29 04:26:42;;;;;;;24.25;3.20;;;;;;;8.83;100.00;99686.53;5030056;28;20025;-37
2022/12/29 04:29:08;;;;;;;36.13;3.33;;;;;;;8.87;100.00;99708.41;5029883;28;20021;-35
2022/12/29 04:31:33;;;;;;;17.50;2.13;;;;;;;8.85;100.00;99700.56;5029525;28;20359;-35
2022/12/29 04:33:59;;;;;;;27.85;2.47;;;;;;;8.85;100.00;99727.41;5029888;28;20021;-35
2022/12/29 04:36:25;;;;;;;15.35;2.40;;;;;;;8.77;100.00;99733.75;5029907;28;20388;-36
2022/12/29 04:38:50;;;;;;;19.98;2.35;;;;;;;8.71;100.00;99731.84;5029797;28;20026;-36
2022/12/29 04:41:15;;;;;;;21.30;2.83;;;;;;;8.64;100.00;99722.94;5029793;28;20025;-37
2022/12/29 04:43:41;;;;;;;19.83;2.03;;;;;;;8.63;100.00;99728.50;5029895;28;20099;-35
2022/12/29 04:46:06;;;;;;;17.77;2.13;;;;;;;8.63;100.00;99740.03;5028298;28;20029;-37
2022/12/29 04:48:31;;;;;;;16.13;1.95;;;;;;;8.62;100.00;99732.22;5029781;28;20152;-35
2022/12/29 04:50:57;;;;;;;30.85;2.97;;;;;;;8.62;100.00;99725.00;5029632;28;20274;-36
2022/12/29 04:53:22;;;;;;;17.33;2.28;;;;;;;8.63;100.00;99725.81;5029886;28;20021;-36
2022/12/29 04:55:51;;;;;;;19.13;2.15;;;;;;;8.60;100.00;99736.94;5030046;28;20021;-36
2022/12/29 04:58:17;;;;;;;21.88;2.38;;;;;;;8.56;100.00;99737.34;5028215;28;20461;-37
2022/12/29 05:00:42;;;;;;;14.00;2.28;;;;;;;8.54;100.00;99752.78;5029667;28;20132;-36
2022/12/29 05:03:08;;;;;;;16.13;2.47;;;;;;;8.59;100.00;99741.47;5028486;28;20468;-35
2022/12/29 05:05:33;;;;;;;16.15;2.47;;;;;;;8.62;100.00;99759.84;5028518;28;20397;-35
2022/12/29 05:07:58;;;;;;;17.15;2.47;;;;;;;8.66;100.00;99744.19;5033305;28;20026;-36
2022/12/29 05:10:24;;;;;;;17.90;2.15;;;;;;;8.65;100.00;99737.19;5031601;28;20034;-37
2022/12/29 05:12:49;;;;;;;16.38;2.55;;;;;;;8.61;100.00;99747.50;5032424;28;20042;-35
2022/12/29 05:15:14;;;;;;;17.92;2.20;;;;;;;8.61;100.00;99754.69;5031492;28;20044;-34
2022/12/29 05:17:40;;;;;;;15.85;1.80;;;;;;;8.60;100.00;99742.31;5032945;28;20342;-34
2022/12/29 05:20:06;;;;;;;16.65;2.22;;;;;;;8.59;100.00;99749.53;5032401;28;20084;-36
2022/12/29 05:22:32;;;;;;;20.35;2.63;;;;;;;8.59;100.00;99743.34;5032876;28;20040;-36
2022/12/29 05:24:57;;;;;;;24.58;2.20;;;;;;;8.60;100.00;99758.41;5032680;28;20029;-36
2022/12/29 05:27:22;;;;;;;14.93;2.75;;;;;;;8.56;100.00;99745.38;5032622;28;20071;-37
2022/12/29 05:29:48;;;;;;;17.67;2.25;;;;;;;8.55;100.00;99756.28;5032778;28;20060;-36
2022/12/29 05:32:13;;;;;;;32.42;3.70;;;;;;;8.62;100.00;99753.69;5032532;28;20032;-36
2022/12/29 05:34:38;;;;;;;22.05;3.20;;;;;;;8.62;100.00;99764.41;5032675;28;20729;-34
2022/12/29 05:37:04;;;;;;;24.48;2.83;;;;;;;8.61;100.00;99765.41;5032533;28;20377;-36
2022/12/29 05:39:29;;;;;;;19.10;2.47;;;;;;;8.57;100.00;99792.63;5032346;28;20109;-37
2022/12/29 05:41:55;;;;;;;24.95;2.53;;;;;;;8.55;100.00;99775.88;5032442;28;20477;-37
2022/12/29 05:44:20;;;;;;;14.55;2.33;;;;;;;8.57;100.00;99808.72;5032541;28;20201;-36
2022/12/29 05:46:45;;;;;;;24.80;2.60;;;;;;;8.57;100.00;99789.13;5032429;28;20057;-35
2022/12/29 05:49:11;;;;;;;21.58;2.78;;;;;;;8.53;100.00;99777.97;5032400;28;20477;-35
2022/12/29 05:51:36;;;;;;;26.23;3.70;;;;;;;8.52;100.00;99787.00;5030822;28;20095;-36
2022/12/29 05:54:01;;;;;;;26.25;2.20;;;;;;;8.53;100.00;99786.00;5014818;28;20025;-36
2022/12/29 05:56:27;;;;;;;19.08;3.22;;;;;;;8.51;100.00;99780.00;5032235;28;20104;-36
2022/12/29 05:58:52;;;;;;;21.52;2.30;;;;;;;8.49;100.00;99790.09;5032483;28;20056;-36
2022/12/29 06:01:17;;;;;;;36.40;3.20;;;;;;;8.51;100.00;99785.38;5031889;28;20056;-36
2022/12/29 06:03:43;;;;;;;23.45;2.65;;;;;;;8.53;100.00;99777.09;5032022;28;20022;-36
2022/12/29 06:06:08;;;;;;;32.10;3.65;;;;;;;8.49;100.00;99779.34;5031983;28;20112;-37
2022/12/29 06:08:33;;;;;;;19.33;2.60;;;;;;;8.47;100.00;99778.72;5031859;28;20417;-36
2022/12/29 06:10:59;;;;;;;17.35;2.65;;;;;;;8.48;100.00;99780.41;5031682;28;20417;-38
2022/12/29 06:13:24;;;;;;;35.33;3.30;;;;;;;8.46;100.00;99786.97;5031817;28;20481;-35
2022/12/29 06:15:50;;;;;;;18.33;2.53;;;;;;;8.45;100.00;99786.16;5031703;28;20029;-38
2022/12/29 06:18:16;;;;;;;26.30;2.90;;;;;;;8.41;100.00;99790.22;5031280;28;20465;-36
2022/12/29 06:20:41;;;;;;;23.10;2.67;;;;;;;8.40;100.00;99782.38;5031632;28;20037;-35
2022/12/29 06:23:06;;;;;;;24.23;3.08;;;;;;;8.35;100.00;99782.94;5030411;28;20645;-37
2022/12/29 06:25:33;;;;;;;25.80;3.63;;;;;;;8.33;100.00;99793.03;5031751;28;20536;-36
2022/12/29 06:27:59;;;;;;;29.52;4.68;;;;;;;8.32;100.00;99791.34;5031455;28;20497;-38
2022/12/29 06:30:24;;;;;;;27.48;2.90;;;;;;;8.33;100.00;99795.69;5031522;28;20069;-36
2022/12/29 06:32:50;;;;;;;23.35;2.97;;;;;;;8.32;100.00;99786.84;5031693;28;20032;-35
2022/12/29 06:35:15;;;;;;;28.83;3.55;;;;;;;8.40;100.00;99787.72;5031441;28;20116;-37
2022/12/29 06:37:41;;;;;;;39.22;3.97;;;;;;;8.43;100.00;99772.09;5031368;28;20037;-35
2022/12/29 06:40:06;;;;;;;25.30;3.25;;;;;;;8.51;100.00;99763.91;5031250;28;20058;-35
2022/12/29 06:42:32;;;;;;;32.67;4.10;;;;;;;8.64;100.00;99779.28;5030060;28;20519;-35
2022/12/29 06:44:58;;;;;;;32.10;3.80;;;;;;;8.73;100.00;99774.59;5030235;28;20099;-36
2022/12/29 06:47:24;;;;;;;36.58;4.25;;;;;;;8.68;100.00;99774.34;5031302;28;20060;-37
2022/12/29 06:49:49;;;;;;;43.00;3.67;;;;;;;8.65;100.00;99774.72;5031161;28;20025;-36
2022/12/29 06:52:15;;;;;;;30.30;3.45;;;;;;;8.65;100.00;99785.47;5031012;28;20096;-35
2022/12/29 06:54:40;;;;;;;39.97;3.70;;;;;;;8.62;100.00;99783.19;5031577;28;20091;-38
2022/12/29 06:57:05;;;;;;;32.72;3.53;;;;;;;8.55;100.00;99783.94;5031151;28;20033;-37
2022/12/29 06:59:31;;;;;;;30.55;4.03;;;;;;;8.57;100.00;99784.56;5030884;28;20124;-37
2022/12/29 07:01:56;;;;;;;32.50;3.35;;;;;;;8.56;100.00;99793.66;5030961;28;20041;-38
2022/12/29 07:04:21;;;;;;;28.58;2.97;;;;;;;8.55;100.00;99786.63;5031046;28;20087;-36
2022/12/29 07:06:47;;;;;;;25.55;2.72;;;;;;;8.53;100.00;99782.47;5030950;28;20034;-38
2022/12/29 07:09:13;;;;;;;26.13;3.10;;;;;;;8.49;100.00;99791.94;5030784;28;20017;-36
2022/12/29 07:11:38;;;;;;;28.00;2.45;;;;;;;8.46;100.00;99801.19;5030758;28;20484;-38
2022/12/29 07:14:03;;;;;;;23.63;3.38;;;;;;;8.47;100.00;99784.09;5031087;28;20031;-36
2022/12/29 07:16:29;;;;;;;23.20;3.70;;;;;;;8.45;100.00;99796.88;5030857;28;20401;-37
2022/12/29 07:18:56;;;;;;;21.60;2.50;;;;;;;8.46;100.00;99798.53;5031027;28;20091;-37
2022/12/29 07:21:21;;;;;;;26.58;3.17;;;;;;;8.46;100.00;99795.84;5030810;28;20113;-37
2022/12/29 07:23:47;;;;;;;22.45;3.08;;;;;;;8.47;100.00;99794.81;5030581;28;20109;-37
2022/12/29 07:26:13;;;;;;;21.42;3.00;;;;;;;8.47;100.00;99808.22;5030597;28;20033;-37
2022/12/29 07:28:39;;;;;;;22.63;2.88;;;;;;;8.48;100.00;99784.94;5029759;28;20022;-36
2022/12/29 07:31:06;;;;;;;24.05;3.65;;;;;;;8.48;100.00;99796.47;5030048;28;20127;-38
2022/12/29 07:33:32;;;;;;;29.33;3.42;;;;;;;8.51;100.00;99781.84;5030336;28;20140;-37
2022/12/29 07:35:58;;;;;;;26.02;3.55;;;;;;;8.52;100.00;99787.00;5030371;28;20030;-36
2022/12/29 07:38:23;;;;;;;25.95;2.83;;;;;;;8.54;100.00;99794.88;5030267;28;20117;-36
2022/12/29 07:40:49;;;;;;;17.65;2.83;;;;;;;8.57;100.00;99795.31;5030917;28;20025;-37
2022/12/29 07:43:14;;;;;;;21.58;2.72;;;;;;;8.59;100.00;99786.25;5030193;28;20042;-37
2022/12/29 07:45:39;;;;;;;23.02;2.40;;;;;;;8.60;100.00;99777.16;5030628;28;20029;-38
2022/12/29 07:48:07;;;;;;;22.95;2.88;;;;;;;8.61;100.00;99777.00;5030309;28;20112;-36
2022/12/29 07:50:33;;;;;;;24.23;2.50;;;;;;;8.57;100.00;99778.38;5030173;28;20064;-38
2022/12/29 07:52:59;;;;;;;25.13;2.85;;;;;;;8.51;100.00;99793.41;5028821;28;20104;-36
2022/12/29 07:55:24;;;;;;;26.50;3.05;;;;;;;8.53;100.00;99807.47;5029991;28;20075;-36
2022/12/29 07:57:49;;;;;;;29.02;2.58;;;;;;;8.51;100.00;99785.38;5030024;28;20030;-37
2022/12/29 08:00:15;;;;;;;33.67;4.30;;;;;;;8.46;100.00;99795.84;5028702;28;20401;-37
2022/12/29 08:02:41;;;;;;;26.73;3.05;;;;;;;8.44;100.00;99803.25;5029986;28;20033;-37
2022/12/29 08:05:06;;;;;;;27.15;3.55;;;;;;;8.45;100.00;99807.59;5029926;28;20405;-35
2022/12/29 08:07:31;;;;;;;25.58;2.75;;;;;;;8.46;100.00;99806.56;5030058;28;20366;-36
2022/12/29 08:09:57;;;;;;;26.40;3.75;;;;;;;8.47;100.00;99805.53;5030355;28;20370;-36
2022/12/29 08:12:23;;;;;;;30.77;2.70;;;;;;;8.45;100.00;99818.31;5030711;28;20438;-36
2022/12/29 08:14:48;;;;;;;27.95;3.28;;;;;;;8.40;100.00;99815.41;5030069;28;20028;-35
2022/12/29 08:17:13;;;;;;;38.38;3.70;;;;;;;8.32;100.00;99818.16;5030142;28;20512;-37
2022/12/29 08:19:39;;;;;;;25.65;3.05;;;;;;;8.24;100.00;99821.81;5030133;28;20480;-36
2022/12/29 08:22:05;;;;;;;32.50;3.67;;;;;;;8.19;100.00;99829.59;5029962;28;20492;-35
2022/12/29 08:24:30;;;;;;;39.53;4.28;;;;;;;8.14;100.00;99846.25;5029455;28;20025;-34
2022/12/29 08:26:55;;;;;;;23.10;3.35;;;;;;;8.07;100.00;99866.78;5029834;28;20026;-37
2022/12/29 08:29:21;;;;;;;33.13;3.22;;;;;;;8.05;100.00;99876.84;5029654;28;20034;-34
2022/12/29 08:31:47;;;;;;;59.08;3.63;;;;;;;8.01;100.00;99878.25;5029572;28;20046;-34
2022/12/29 08:34:12;;;;;;;38.17;3.65;;;;;;;7.94;100.00;99879.22;5029608;28;20111;-40
2022/12/29 08:36:38;;;;;;;38.83;4.25;;;;;;;7.86;100.00;99869.44;5029535;28;20034;-42
2022/12/29 08:39:03;;;;;;;33.47;4.55;;;;;;;7.83;100.00;99886.69;5028433;28;20092;-42
2022/12/29 08:41:28;;;;;;;38.10;3.10;;;;;;;7.79;100.00;99881.91;5033236;28;20041;-42
2022/12/29 08:43:53;;;;;;;30.80;2.80;;;;;;;7.80;100.00;99886.25;5033436;28;20021;-39
2022/12/29 08:46:19;;;;;;;32.17;4.07;;;;;;;7.80;100.00;99891.63;5033736;28;20558;-41
2022/12/29 08:48:44;;;;;;;32.28;4.55;;;;;;;7.79;100.00;99889.94;5033511;28;20052;-41
2022/12/29 08:51:10;;;;;;;33.63;3.10;;;;;;;7.77;100.00;99894.69;5033791;28;20025;-43
2022/12/29 08:53:35;;;;;;;33.55;3.53;;;;;;;7.76;100.00;99883.09;5033679;28;20036;-43
2022/12/29 08:56:01;;;;;;;29.00;3.58;;;;;;;7.76;100.00;99882.28;5033986;28;20080;-42
2022/12/29 08:58:27;;;;;;;38.10;3.58;;;;;;;7.79;100.00;99922.09;5033075;28;20041;-40
2022/12/29 09:00:53;;;;;;;45.83;4.63;;;;;;;7.82;100.00;99914.53;5032957;28;20025;-39
2022/12/29 09:03:19;;;;;;;29.95;3.15;;;;;;;7.86;100.00;99931.03;5033380;28;20025;-37
2022/12/29 09:05:48;;;;;;;27.75;3.90;;;;;;;7.85;100.00;99918.69;5032953;28;20030;-40
2022/12/29 09:08:13;;;;;;;38.78;3.80;;;;;;;7.85;100.00;99945.47;5032817;28;20064;-42
2022/12/29 09:10:39;;;;;;;35.95;3.38;;;;;;;7.86;100.00;99939.91;5032952;28;20053;-41
2022/12/29 09:13:04;;;;;;;25.83;3.67;;;;;;;7.84;100.00;99949.13;5033064;28;20083;-40
2022/12/29 09:15:29;;;;;;;32.22;3.58;;;;;;;7.83;100.00;99953.69;5032930;28;20075;-40
2022/12/29 09:17:55;;;;;;;37.75;3.22;;;;;;;7.87;100.00;99964.84;5032959;28;20215;-40
2022/12/29 09:20:21;;;;;;;37.60;3.50;;;;;;;7.90;100.00;99956.44;5032976;28;20037;-37
2022/12/29 09:22:46;;;;;;;35.08;3.88;;;;;;;7.91;100.00;99960.78;5032414;28;20079;-38
2022/12/29 09:25:13;;;;;;;39.50;4.70;;;;;;;7.96;100.00;99962.91;5032686;28;20033;-41
2022/12/29 09:27:38;;;;;;;47.90;4.75;;;;;;;7.99;100.00;99987.47;5032940;28;20036;-40
2022/12/29 09:30:06;;;;;;;39.38;3.72;;;;;;;8.06;100.00;99977.69;5032162;28;20072;-39
2022/12/29 09:32:31;;;;;;;46.60;5.18;;;;;;;8.16;100.00;99992.63;5032562;28;20397;-39
2022/12/29 09:34:57;;;;;;;51.25;4.88;;;;;;;8.25;100.00;99988.84;5031159;28;20025;-39
2022/12/29 09:37:22;;;;;;;48.33;6.05;;;;;;;8.29;100.00;99976.69;5032467;28;20036;-36
2022/12/29 09:39:47;;;;;;;49.67;5.78;;;;;;;8.31;100.00;99993.44;5045928;28;20021;-36
2022/12/29 09:42:24;;;;;;;38.20;4.55;;;;;;;8.34;100.00;100007.28;5051241;28;20040;-37
2022/12/29 09:45:10;;;;;;;50.35;5.13;;;;;;;8.38;100.00;100009.63;5044444;28;20219;-38
2022/12/29 09:47:36;;;;;;;47.58;4.57;;;;;;;8.42;100.00;100019.78;5032440;28;20511;-36
2022/12/29 09:50:09;;;;;;;56.65;6.72;;;;;;;8.39;100.00;100035.41;5031970;28;20033;-36
2022/12/29 09:52:53;;;;;;;50.65;6.60;;;;;;;8.40;100.00;100035.25;5031908;28;20029;-36
2022/12/29 09:55:21;;;;;;;60.78;6.45;;;;;;;8.41;100.00;100034.22;5031015;28;20029;-36
2022/12/29 09:57:48;;;;;;;;;;;;;;;8.42;100.00;100035.06;5031326;28;20041;-38
2022/12/29 10:00:16;;;;;;;55.97;6.70;;;;;;;8.41;100.00;100044.94;5030804;28;19909;-37
2022/12/29 10:02:59;;;;;;;;;;;;;;;8.44;100.00;100047.25;5031009;28;20105;-36
2022/12/29 10:05:38;;;;;;;42.58;5.00;;;;;;;8.47;100.00;100057.59;5032003;28;20004;-37
2022/12/29 10:08:40;;;;;;;47.30;5.88;;;;;;;8.73;100.00;100061.63;5030986;28;20124;-36
2022/12/29 10:11:24;;;;;;;51.72;6.93;;;;;;;8.97;100.00;100063.13;5031944;28;20038;-36
2022/12/29 10:14:02;;;;;;;47.92;5.78;;;;;;;8.97;100.00;100063.94;5030774;28;20021;-37
2022/12/29 10:16:32;;;;;;;47.35;5.18;;;;;;;8.92;100.00;100070.91;5032048;28;20493;-37
2022/12/29 10:19:29;;;;;;;52.17;6.03;;;;;;;8.79;100.00;100071.59;5032237;28;20113;-36
2022/12/29 10:22:00;;;;;;;56.85;6.53;;;;;;;8.63;100.00;100090.59;5031430;28;20033;-35
2022/12/29 10:24:27;;;;;;;53.80;5.68;;;;;;;8.60;100.00;100086.44;5031733;28;20025;-36
2022/12/29 10:26:53;;;;;;;51.28;5.60;;;;;;;8.84;100.00;100087.94;5031564;28;20029;-38
2022/12/29 10:29:22;;;;;;;50.70;5.05;;;;;;;9.18;100.00;100099.88;5030486;28;20061;-36
2022/12/29 10:31:54;;;;;;;44.92;4.60;;;;;;;9.41;100.00;100081.72;5030016;28;20152;-37
2022/12/29 10:34:27;;;;;;;44.17;5.78;;;;;;;9.53;100.00;100081.19;5032020;28;20028;-37
2022/12/29 10:37:05;;;;;;;41.30;5.00;;;;;;;9.57;100.00;100091.38;5030072;28;20124;-36
2022/12/29 10:39:38;;;;;;;49.63;5.43;;;;;;;9.45;100.00;100101.81;5030568;28;20036;-35
2022/12/29 10:42:09;;;;;;;42.78;5.82;;;;;;;9.34;100.00;100088.88;5031303;28;20052;-36
2022/12/29 10:44:35;;;;;;;49.42;5.60;;;;;;;9.31;100.00;100107.25;5031536;28;20132;-37
2022/12/29 10:47:06;;;;;;;42.95;4.97;;;;;;;9.18;100.00;100098.03;5031298;28;20033;-35
2022/12/29 10:49:36;;;;;;;40.28;5.90;;;;;;;9.11;100.00;100101.66;5031372;28;20036;-36
2022/12/29 10:52:03;;;;;;;37.70;5.43;;;;;;;9.20;100.00;100108.59;5029692;28;20021;-36
2022/12/29 10:54:37;;;;;;;52.08;4.10;;;;;;;9.30;100.00;100106.41;5029996;28;20025;-37
2022/12/29 10:57:09;;;;;;;49.85;4.25;;;;;;;9.35;100.00;100112.03;5031135;28;20022;-36
2022/12/29 10:59:36;;;;;;;40.03;4.97;;;;;;;9.23;100.00;100116.25;5029817;28;20036;-37
2022/12/29 11:02:10;;;;;;;31.10;4.47;;;;;;;9.18;100.00;100113.31;5030980;28;20030;-36
2022/12/29 11:04:59;;;;;;;38.30;6.60;;;;;;;9.13;100.00;100140.72;5031339;28;20073;-36
2022/12/29 11:07:25;;;;;;;38.90;3.92;;;;;;;9.12;100.00;100141.75;5029776;28;20053;-36
2022/12/29 11:09:51;;;;;;;40.30;4.32;;;;;;;9.43;100.00;100148.69;5031261;28;20068;-36
2022/12/29 11:12:26;;;;;;;31.90;4.75;;;;;;;9.80;100.00;100136.84;5031273;28;20036;-38
2022/12/29 11:15:09;;;;;;;36.33;5.20;;;;;;;10.33;100.00;100145.31;5031131;28;20057;-37
2022/12/29 11:17:47;;;;;;;26.15;3.90;;;;;;;10.43;100.00;100152.22;5031009;28;20025;-38
2022/12/29 11:20:39;;;;;;;26.05;3.45;;;;;;;10.61;100.00;100124.75;5031060;28;20017;-37
2022/12/29 11:23:23;;;;;;;27.52;5.03;;;;;;;10.80;100.00;100145.56;5030902;28;20033;-37
2022/12/29 11:26:22;;;;;;;29.15;3.60;;;;;;;10.64;100.00;100130.59;5030767;28;20113;-36
2022/12/29 11:29:15;;;;;;;25.55;3.08;;;;;;;10.59;100.00;100142.97;5022314;28;20125;-39
2022/12/29 11:31:47;;;;;;;25.77;3.92;;;;;;;10.31;100.00;100141.97;5030162;28;20130;-39
2022/12/29 11:34:24;;;;;;;26.88;3.53;;;;;;;10.09;100.00;100143.06;5029305;28;20454;-39
2022/12/29 11:36:52;;;;;;;19.63;3.40;;;;;;;10.09;100.00;100159.19;5030567;28;20033;-39
2022/12/29 11:39:41;;;;;;;33.15;4.32;;;;;;;9.93;100.00;100159.47;5030730;28;20370;-37
2022/12/29 11:42:13;;;;;;;29.75;3.78;;;;;;;10.09;100.00;100154.63;5029284;28;20032;-37
2022/12/29 11:44:43;;;;;;;24.30;3.03;;;;;;;10.24;100.00;100161.75;5029096;28;20117;-36
2022/12/29 11:47:20;;;;;;;25.67;3.45;;;;;;;10.67;100.00;100154.41;5029158;28;20108;-37
2022/12/29 11:49:50;;;;;;;24.38;2.88;;;;;;;11.07;100.00;100159.13;5029483;28;20036;-37
2022/12/29 11:52:15;;;;;;;14.93;2.42;;;;;;;11.00;100.00;100167.16;5028966;28;20022;-38
2022/12/29 11:54:42;;;;;;;17.20;2.65;;;;;;;10.82;100.00;100153.41;5030392;28;20473;-38
2022/12/29 11:57:15;;;;;;;20.88;3.15;;;;;;;10.53;100.00;100155.34;5028939;28;20057;-36
2022/12/29 11:59:57;;;;;;;17.83;2.67;;;;;;;10.19;100.00;100148.91;5030181;28;20026;-38
2022/12/29 12:02:31;;;;;;;21.27;4.75;;;;;;;9.98;100.00;100167.75;5030243;28;20033;-39